This is the latest recevied weather packets stored in our database for station/object SP9POL-3. If no packets are shown the sender has not sent any weather packets the latest 10 day(s).
| Time | Temp. | Humidity | Pressure | Rain* | Wind** | Luminosity | Snow |
|---|---|---|---|---|---|---|---|
| 1777531629 | 3.89° C | 46% | 1030 hPa | - | - | - | - |
| 1777529949 | 3.33° C | 48% | 1030 hPa | - | - | - | - |
| 1777528268 | 3.33° C | 49% | 1029.8 hPa | - | - | - | - |
| 1777526588 | 2.22° C | 49% | 1029.9 hPa | - | - | - | - |
| 1777524908 | 1.67° C | 49% | 1029.8 hPa | - | - | - | - |
| 1777523228 | 1.11° C | 49% | 1029.7 hPa | - | - | - | - |
| 1777521548 | 1.11° C | 50% | 1029.7 hPa | - | - | - | - |
| 1777519867 | 0.56° C | 51% | 1029.6 hPa | - | - | - | - |
| 1777518187 | 1.11° C | 50% | 1029.4 hPa | - | - | - | - |
| 1777516507 | 1.11° C | 53% | 1029.2 hPa | - | - | - | - |
| 1777514827 | 1.11° C | 53% | 1029.2 hPa | - | - | - | - |
| 1777513146 | 1.11° C | 51% | 1029.2 hPa | - | - | - | - |
| 1777511466 | 1.67° C | 51% | 1029.2 hPa | - | - | - | - |
| 1777509786 | 2.22° C | 50% | 1029.2 hPa | - | - | - | - |
| 1777508106 | 1.67° C | 50% | 1029.1 hPa | - | - | - | - |
| 1777506426 | 2.78° C | 48% | 1029.1 hPa | - | - | - | - |
| 1777504746 | 2.78° C | 47% | 1029 hPa | - | - | - | - |
| 1777503066 | 3.33° C | 47% | 1029.1 hPa | - | - | - | - |
| 1777501386 | 3.33° C | 46% | 1029.1 hPa | - | - | - | - |
| 1777499706 | 3.33° C | 49% | 1029 hPa | - | - | - | - |
| 1777498026 | 3.33° C | 49% | 1028.9 hPa | - | - | - | - |
| 1777496345 | 4.44° C | 45% | 1028.7 hPa | - | - | - | - |
| 1777494665 | 4.44° C | 46% | 1028.6 hPa | - | - | - | - |
| 1777492985 | 5° C | 44% | 1028.6 hPa | - | - | - | - |
| 1777491305 | 5.56° C | 43% | 1028.5 hPa | - | - | - | - |
* Rain since midnight (hover to see other rain measurements)
** Current wind speed in m/s (hover to see current wind gust speed)